Time;durP1;ratioP1;P1;durP2;ratioP2;P2;SDS_P1;SDS_P2;PMS_P1;PMS_P2;Temp;Humidity;BMP_temperature;BMP_pressure;BME280_temperature;BME280_humidity;BME280_pressure;Samples;Min_cycle;Max_cycle;Signal;HPM_P1;HPM_P2
2023/05/27 00:02:22;;;;;;;8.70;5.65;;;;;;;;;;5051790;28;20385;-80
2023/05/27 00:04:48;;;;;;;5.80;5.30;;;;;;;;;;5051468;28;20378;-80
2023/05/27 00:07:14;;;;;;;5.70;5.07;;;;;;;;;;5051209;28;20918;-80
2023/05/27 00:09:40;;;;;;;5.45;4.95;;;;;;;;;;5051568;28;20434;-80
2023/05/27 00:12:06;;;;;;;5.93;5.30;;;;;;;;;;5050780;28;20386;-80
2023/05/27 00:14:32;;;;;;;6.25;5.47;;;;;;;;;;5050991;28;20445;-80
2023/05/27 00:17:01;;;;;;;7.40;5.50;;;;;;;;;;5050931;28;20431;-79
2023/05/27 00:19:29;;;;;;;5.47;4.90;;;;;;;;;;5050709;28;20380;-80
2023/05/27 00:21:55;;;;;;;6.53;5.40;;;;;;;;;;5051270;28;20461;-79
2023/05/27 00:24:21;;;;;;;7.43;5.30;;;;;;;;;;5050333;28;20388;-79
2023/05/27 00:26:47;;;;;;;5.53;5.03;;;;;;;;;;5051438;28;20392;-79
2023/05/27 00:29:13;;;;;;;7.97;5.40;;;;;;;;;;5050035;28;20381;-81
2023/05/27 00:31:39;;;;;;;6.20;5.30;;;;;;;;;;5050360;28;20452;-80
2023/05/27 00:34:05;;;;;;;8.68;5.10;;;;;;;;;;5050888;28;21435;-79
2023/05/27 00:36:31;;;;;;;5.53;5.00;;;;;;;;;;5045378;28;20377;-80
2023/05/27 00:38:58;;;;;;;7.18;5.25;;;;;;;;;;5049269;28;20378;-81
2023/05/27 00:41:24;;;;;;;6.57;5.07;;;;;;;;;;5050965;28;20382;-81
2023/05/27 00:43:50;;;;;;;5.82;5.22;;;;;;;;;;5051080;28;20476;-81
2023/05/27 00:46:16;;;;;;;7.13;5.40;;;;;;;;;;5051519;28;20604;-81
2023/05/27 00:48:42;;;;;;;7.18;5.30;;;;;;;;;;5061923;28;20373;-81
2023/05/27 00:51:09;;;;;;;7.05;5.25;;;;;;;;;;5050971;28;20392;-81
2023/05/27 00:53:40;;;;;;;6.70;5.53;;;;;;;;;;5050866;28;20409;-81
2023/05/27 00:56:07;;;;;;;7.32;5.50;;;;;;;;;;5050910;28;20969;-81
2023/05/27 00:58:34;;;;;;;5.40;4.90;;;;;;;;;;5050933;28;20384;-80
2023/05/27 01:01:01;;;;;;;6.20;5.13;;;;;;;;;;5051069;28;20380;-80
2023/05/27 01:03:28;;;;;;;6.60;5.43;;;;;;;;;;5050832;28;20424;-81
2023/05/27 01:06:00;;;;;;;6.53;5.20;;;;;;;;;;5050845;28;20381;-80
2023/05/27 01:08:32;;;;;;;8.37;5.37;;;;;;;;;;5050973;28;20481;-80
2023/05/27 01:10:58;;;;;;;6.70;5.18;;;;;;;;;;5053265;28;20873;-79
2023/05/27 01:13:39;;;;;;;6.27;4.73;;;;;;;;;;5051075;28;20405;-80
2023/05/27 01:16:10;;;;;;;6.68;5.30;;;;;;;;;;5050585;28;20468;-80
2023/05/27 01:18:36;;;;;;;5.22;4.63;;;;;;;;;;5049684;28;20417;-80
2023/05/27 01:21:07;;;;;;;5.90;5.17;;;;;;;;;;5050423;28;20454;-80
2023/05/27 01:23:33;;;;;;;6.13;4.80;;;;;;;;;;5050643;28;20377;-80
2023/05/27 01:26:00;;;;;;;7.65;5.47;;;;;;;;;;5050335;28;20385;-80
2023/05/27 01:28:26;;;;;;;6.03;5.00;;;;;;;;;;5050841;28;20385;-81
2023/05/27 01:30:54;;;;;;;8.30;4.80;;;;;;;;;;5050615;28;20515;-80
2023/05/27 01:33:22;;;;;;;8.00;5.35;;;;;;;;;;5050728;28;20511;-80
2023/05/27 01:35:53;;;;;;;6.55;5.13;;;;;;;;;;5052831;28;20858;-80
2023/05/27 01:38:20;;;;;;;5.95;4.90;;;;;;;;;;5054232;28;20750;-80
2023/05/27 01:40:48;;;;;;;6.97;5.00;;;;;;;;;;5054412;28;20884;-80
2023/05/27 01:43:15;;;;;;;7.68;4.90;;;;;;;;;;5054121;28;20385;-80
2023/05/27 01:45:42;;;;;;;7.10;4.88;;;;;;;;;;5054161;28;20427;-80
2023/05/27 01:48:09;;;;;;;6.20;4.65;;;;;;;;;;5054034;28;20393;-81
2023/05/27 01:50:35;;;;;;;6.07;4.97;;;;;;;;;;5054109;28;20434;-80
2023/05/27 01:53:01;;;;;;;7.57;5.18;;;;;;;;;;5054026;28;20389;-80
2023/05/27 01:55:28;;;;;;;6.23;4.80;;;;;;;;;;5053928;28;20402;-80
2023/05/27 01:57:54;;;;;;;7.80;4.90;;;;;;;;;;5053987;28;20427;-80
2023/05/27 02:00:20;;;;;;;6.18;4.55;;;;;;;;;;5053969;28;20390;-80
2023/05/27 02:02:46;;;;;;;5.75;4.50;;;;;;;;;;5053984;28;20389;-80
2023/05/27 02:05:12;;;;;;;8.23;4.57;;;;;;;;;;5053313;28;20430;-80
2023/05/27 02:07:39;;;;;;;6.07;4.47;;;;;;;;;;5053734;28;20888;-80
2023/05/27 02:10:05;;;;;;;6.22;4.68;;;;;;;;;;5053864;28;20480;-80
2023/05/27 02:12:31;;;;;;;8.40;4.60;;;;;;;;;;5053763;28;20907;-80
2023/05/27 02:14:57;;;;;;;7.30;5.10;;;;;;;;;;5053502;28;20536;-80
2023/05/27 02:17:24;;;;;;;7.53;4.65;;;;;;;;;;5049976;28;20447;-80
2023/05/27 02:19:50;;;;;;;6.35;4.70;;;;;;;;;;5044818;28;20374;-80
2023/05/27 02:22:17;;;;;;;7.50;4.93;;;;;;;;;;5045715;28;20385;-80
2023/05/27 02:24:43;;;;;;;7.22;5.03;;;;;;;;;;5051103;28;20497;-80
2023/05/27 02:27:09;;;;;;;5.90;4.75;;;;;;;;;;5052695;28;20414;-80
2023/05/27 02:29:35;;;;;;;6.15;4.70;;;;;;;;;;5052055;28;20381;-80
2023/05/27 02:32:01;;;;;;;6.18;5.00;;;;;;;;;;5052879;28;20383;-80
2023/05/27 02:34:27;;;;;;;8.77;5.30;;;;;;;;;;5052776;28;20496;-80
2023/05/27 02:36:53;;;;;;;7.10;4.65;;;;;;;;;;5051979;28;20888;-80
2023/05/27 02:39:19;;;;;;;9.60;5.22;;;;;;;;;;5053216;28;20465;-80
2023/05/27 02:41:45;;;;;;;9.00;5.33;;;;;;;;;;5053193;28;20385;-80
2023/05/27 02:44:12;;;;;;;7.53;4.97;;;;;;;;;;5053118;28;20389;-80
2023/05/27 02:46:38;;;;;;;6.70;4.95;;;;;;;;;;5054463;28;20391;-80
2023/05/27 02:49:04;;;;;;;7.93;5.05;;;;;;;;;;5052838;28;20394;-80
2023/05/27 02:51:30;;;;;;;8.00;5.30;;;;;;;;;;5052746;28;20476;-80
2023/05/27 02:53:56;;;;;;;10.15;5.32;;;;;;;;;;5052696;28;20409;-80
2023/05/27 02:56:22;;;;;;;8.10;5.18;;;;;;;;;;5052575;28;20425;-80
2023/05/27 02:58:48;;;;;;;10.05;5.60;;;;;;;;;;5051371;28;20392;-81
2023/05/27 03:01:14;;;;;;;8.60;5.13;;;;;;;;;;5052714;28;20382;-80
2023/05/27 03:03:40;;;;;;;8.37;5.20;;;;;;;;;;5052256;28;20389;-80
2023/05/27 03:06:06;;;;;;;9.93;5.50;;;;;;;;;;5052572;28;20440;-80
2023/05/27 03:08:32;;;;;;;7.65;5.22;;;;;;;;;;5052519;28;20393;-80
2023/05/27 03:10:58;;;;;;;7.38;5.10;;;;;;;;;;5051184;28;20401;-80
2023/05/27 03:13:24;;;;;;;6.78;5.18;;;;;;;;;;5052206;28;20491;-80
2023/05/27 03:15:50;;;;;;;8.32;5.03;;;;;;;;;;5052069;28;20758;-80
2023/05/27 03:18:17;;;;;;;5.53;4.45;;;;;;;;;;5052303;28;20388;-80
2023/05/27 03:20:43;;;;;;;6.47;5.18;;;;;;;;;;5055560;28;20383;-80
2023/05/27 03:23:09;;;;;;;6.20;4.63;;;;;;;;;;5039179;28;20865;-80
2023/05/27 03:25:35;;;;;;;5.97;4.53;;;;;;;;;;5052020;28;20377;-80
2023/05/27 03:28:01;;;;;;;8.60;5.03;;;;;;;;;;5052110;28;20385;-80
2023/05/27 03:30:27;;;;;;;5.43;4.68;;;;;;;;;;5052113;28;20503;-80
2023/05/27 03:32:53;;;;;;;7.45;5.00;;;;;;;;;;5051817;28;20420;-80
2023/05/27 03:35:19;;;;;;;6.68;5.00;;;;;;;;;;5051527;28;20370;-80
2023/05/27 03:37:45;;;;;;;6.15;4.70;;;;;;;;;;5050947;28;20458;-80
2023/05/27 03:40:12;;;;;;;10.18;5.30;;;;;;;;;;5051884;28;20781;-80
2023/05/27 03:42:38;;;;;;;8.63;5.13;;;;;;;;;;5051861;28;20381;-80
2023/05/27 03:45:04;;;;;;;6.65;4.75;;;;;;;;;;5051330;28;20392;-80
2023/05/27 03:47:30;;;;;;;6.70;4.90;;;;;;;;;;5051774;28;20381;-80
2023/05/27 03:49:56;;;;;;;6.40;4.73;;;;;;;;;;5051717;28;20599;-80
2023/05/27 03:52:22;;;;;;;8.07;5.28;;;;;;;;;;5051690;28;20477;-80
2023/05/27 03:54:48;;;;;;;8.65;5.00;;;;;;;;;;5051151;28;20615;-80
2023/05/27 03:57:15;;;;;;;8.27;4.70;;;;;;;;;;5051154;28;20406;-80
2023/05/27 03:59:41;;;;;;;7.13;4.72;;;;;;;;;;5051439;28;20897;-80
2023/05/27 04:02:07;;;;;;;7.70;4.80;;;;;;;;;;5051362;28;20385;-80
2023/05/27 04:04:34;;;;;;;7.47;4.85;;;;;;;;;;5051154;28;20385;-80
2023/05/27 04:07:00;;;;;;;7.50;4.60;;;;;;;;;;5051463;28;20412;-80
2023/05/27 04:09:26;;;;;;;7.60;4.93;;;;;;;;;;5051115;28;20442;-80
2023/05/27 04:11:52;;;;;;;7.65;4.82;;;;;;;;;;5050985;28;20381;-80
2023/05/27 04:14:19;;;;;;;6.63;4.60;;;;;;;;;;5050928;28;20926;-80
2023/05/27 04:16:44;;;;;;;5.93;4.35;;;;;;;;;;5050991;28;20457;-80
2023/05/27 04:19:10;;;;;;;8.20;4.50;;;;;;;;;;5051168;28;20515;-80
2023/05/27 04:21:36;;;;;;;6.77;4.40;;;;;;;;;;5051273;28;20435;-80
2023/05/27 04:24:03;;;;;;;7.93;4.78;;;;;;;;;;5051040;28;20385;-81
2023/05/27 04:26:29;;;;;;;6.55;4.57;;;;;;;;;;5049873;28;20432;-80
2023/05/27 04:28:55;;;;;;;7.63;4.83;;;;;;;;;;5050387;28;20381;-81
2023/05/27 04:31:21;;;;;;;6.72;4.82;;;;;;;;;;5049321;28;20394;-81
2023/05/27 04:33:47;;;;;;;8.93;5.28;;;;;;;;;;5037811;28;20921;-81
2023/05/27 04:36:16;;;;;;;7.75;4.80;;;;;;;;;;5046955;28;20459;-80
2023/05/27 04:38:45;;;;;;;6.22;4.22;;;;;;;;;;5039495;28;20770;-80
2023/05/27 04:41:11;;;;;;;7.20;4.40;;;;;;;;;;5052025;28;20393;-80
2023/05/27 04:43:37;;;;;;;6.90;4.45;;;;;;;;;;5048665;28;21130;-81
2023/05/27 04:46:04;;;;;;;6.57;4.72;;;;;;;;;;5048924;28;20516;-80
2023/05/27 04:48:30;;;;;;;6.63;4.50;;;;;;;;;;5048668;28;20464;-81
2023/05/27 04:50:57;;;;;;;6.20;4.45;;;;;;;;;;5050707;28;20381;-81
2023/05/27 04:53:23;;;;;;;7.83;4.33;;;;;;;;;;5048957;28;20423;-80
2023/05/27 04:55:49;;;;;;;7.07;4.47;;;;;;;;;;5048938;28;20398;-80
2023/05/27 04:58:15;;;;;;;6.60;4.00;;;;;;;;;;5049959;28;20435;-79
2023/05/27 05:03:20;;;;;;;8.13;4.55;;;;;;;;;;5051075;28;20866;-79
2023/05/27 05:05:46;;;;;;;6.95;4.20;;;;;;;;;;5050606;28;20413;-80
2023/05/27 05:08:12;;;;;;;7.03;4.88;;;;;;;;;;5050866;28;20385;-80
2023/05/27 05:10:38;;;;;;;8.23;4.80;;;;;;;;;;5052730;28;20467;-79
2023/05/27 05:13:05;;;;;;;8.52;4.85;;;;;;;;;;5053388;28;20385;-80
2023/05/27 05:15:31;;;;;;;5.63;4.28;;;;;;;;;;5054283;28;20415;-79
2023/05/27 05:17:57;;;;;;;7.80;4.85;;;;;;;;;;5054323;28;20378;-80
2023/05/27 05:20:23;;;;;;;7.30;4.60;;;;;;;;;;5054616;28;20811;-79
2023/05/27 05:22:49;;;;;;;5.60;4.23;;;;;;;;;;5053429;28;20382;-79
2023/05/27 05:25:15;;;;;;;7.35;4.82;;;;;;;;;;5053541;28;20396;-80
2023/05/27 05:27:42;;;;;;;7.80;4.43;;;;;;;;;;5053845;28;20397;-80
2023/05/27 05:30:08;;;;;;;9.85;4.70;;;;;;;;;;5051291;28;20852;-80
2023/05/27 05:32:34;;;;;;;7.07;4.03;;;;;;;;;;5052623;28;20385;-81
2023/05/27 05:35:00;;;;;;;5.72;4.25;;;;;;;;;;5053158;28;20455;-81
2023/05/27 05:37:26;;;;;;;5.40;4.53;;;;;;;;;;5054263;28;20382;-81
2023/05/27 05:39:54;;;;;;;6.38;4.43;;;;;;;;;;5053898;28;20385;-82
2023/05/27 05:42:20;;;;;;;7.30;4.30;;;;;;;;;;5053640;28;20487;-82
2023/05/27 05:44:46;;;;;;;8.43;4.90;;;;;;;;;;5053111;28;22049;-79
2023/05/27 05:47:12;;;;;;;6.00;4.50;;;;;;;;;;5054201;28;20382;-80
2023/05/27 05:49:38;;;;;;;6.28;4.38;;;;;;;;;;5050737;28;21087;-80
2023/05/27 05:52:04;;;;;;;9.73;5.10;;;;;;;;;;5058341;28;20379;-81
2023/05/27 05:54:30;;;;;;;7.17;4.77;;;;;;;;;;5053592;28;20788;-80
2023/05/27 05:56:56;;;;;;;6.63;4.65;;;;;;;;;;5053281;28;20936;-80
2023/05/27 05:59:22;;;;;;;7.38;4.90;;;;;;;;;;5052778;28;20377;-80
2023/05/27 06:01:48;;;;;;;6.00;4.50;;;;;;;;;;5053577;28;20416;-80
2023/05/27 06:04:15;;;;;;;6.20;4.13;;;;;;;;;;5053258;28;20381;-81
2023/05/27 06:06:41;;;;;;;6.70;4.75;;;;;;;;;;5053822;28;20473;-80
2023/05/27 06:09:07;;;;;;;8.00;5.05;;;;;;;;;;5053694;28;20424;-80
2023/05/27 06:11:33;;;;;;;8.38;4.85;;;;;;;;;;5053704;28;20485;-81
2023/05/27 06:13:59;;;;;;;6.97;4.40;;;;;;;;;;5053411;28;20415;-82
2023/05/27 06:16:25;;;;;;;6.90;4.90;;;;;;;;;;5053402;28;20385;-81
2023/05/27 06:18:51;;;;;;;8.15;4.95;;;;;;;;;;5053805;28;20381;-81
2023/05/27 06:21:18;;;;;;;6.82;4.72;;;;;;;;;;5052783;28;20382;-81
2023/05/27 06:23:44;;;;;;;8.27;4.93;;;;;;;;;;5053594;28;20754;-81
2023/05/27 06:26:10;;;;;;;9.17;5.33;;;;;;;;;;5053311;28;20381;-81
2023/05/27 06:28:36;;;;;;;5.95;4.32;;;;;;;;;;5053538;28;20389;-81
2023/05/27 06:31:02;;;;;;;6.43;4.95;;;;;;;;;;5053300;28;20408;-81
2023/05/27 06:33:28;;;;;;;8.27;5.28;;;;;;;;;;5053271;28;20405;-81
2023/05/27 06:35:54;;;;;;;8.60;5.30;;;;;;;;;;5053349;28;20519;-81
2023/05/27 06:38:20;;;;;;;7.22;5.30;;;;;;;;;;5052466;28;20968;-81
2023/05/27 06:40:46;;;;;;;8.45;5.38;;;;;;;;;;5051569;28;20464;-81
2023/05/27 06:43:12;;;;;;;6.97;5.07;;;;;;;;;;5053127;28;20778;-80
2023/05/27 06:45:38;;;;;;;6.38;5.00;;;;;;;;;;5052995;28;20382;-81
2023/05/27 06:48:04;;;;;;;6.53;4.75;;;;;;;;;;5051410;28;20409;-82
2023/05/27 06:50:30;;;;;;;6.75;4.97;;;;;;;;;;5053443;28;20384;-83
2023/05/27 06:52:56;;;;;;;8.02;4.97;;;;;;;;;;5052911;28;20382;-82
2023/05/27 06:55:22;;;;;;;8.13;5.32;;;;;;;;;;5052737;28;20889;-82
2023/05/27 06:57:48;;;;;;;9.87;5.10;;;;;;;;;;5052952;28;20382;-80
2023/05/27 07:00:14;;;;;;;7.90;5.57;;;;;;;;;;5052322;28;20400;-80
2023/05/27 07:02:40;;;;;;;6.40;5.30;;;;;;;;;;5052525;28;20980;-80
2023/05/27 07:05:06;;;;;;;6.80;4.90;;;;;;;;;;5052730;28;20381;-81
2023/05/27 07:07:32;;;;;;;8.63;5.32;;;;;;;;;;5051858;28;20378;-80
2023/05/27 07:09:58;;;;;;;6.75;5.32;;;;;;;;;;5052155;28;20378;-80
2023/05/27 07:12:27;;;;;;;8.30;5.80;;;;;;;;;;5051680;28;20381;-81
2023/05/27 07:14:53;;;;;;;7.50;5.90;;;;;;;;;;5051676;28;20726;-81
2023/05/27 07:17:19;;;;;;;7.70;5.50;;;;;;;;;;5052145;28;20931;-82
2023/05/27 07:19:45;;;;;;;7.72;5.25;;;;;;;;;;5050787;28;20389;-80
2023/05/27 07:22:11;;;;;;;6.50;5.53;;;;;;;;;;5052056;28;20386;-80
2023/05/27 07:24:37;;;;;;;6.93;5.43;;;;;;;;;;5051852;28;20866;-82
2023/05/27 07:27:04;;;;;;;10.80;6.40;;;;;;;;;;5052263;28;20416;-83
2023/05/27 07:29:30;;;;;;;8.68;6.90;;;;;;;;;;5051268;28;20393;-82
2023/05/27 07:31:55;;;;;;;8.23;6.10;;;;;;;;;;5051125;28;20397;-81
2023/05/27 07:34:22;;;;;;;7.60;5.70;;;;;;;;;;5047885;28;20873;-83
2023/05/27 07:36:48;;;;;;;9.40;6.18;;;;;;;;;;5039482;28;20382;-82
2023/05/27 07:39:14;;;;;;;7.55;6.00;;;;;;;;;;5051847;28;20874;-82
2023/05/27 07:41:40;;;;;;;7.80;6.10;;;;;;;;;;5051742;28;20378;-83
2023/05/27 07:44:06;;;;;;;8.73;5.90;;;;;;;;;;5052013;28;20381;-82
2023/05/27 07:46:33;;;;;;;8.37;6.30;;;;;;;;;;5045875;28;20386;-82
2023/05/27 07:48:59;;;;;;;8.07;6.22;;;;;;;;;;5051861;28;20377;-82
2023/05/27 07:51:26;;;;;;;8.70;6.23;;;;;;;;;;5050025;28;20476;-82
2023/05/27 07:53:52;;;;;;;6.40;5.60;;;;;;;;;;5051844;28;20401;-81
2023/05/27 07:56:18;;;;;;;7.78;6.30;;;;;;;;;;5049500;28;20893;-81
2023/05/27 07:58:44;;;;;;;7.75;6.35;;;;;;;;;;5049607;28;20388;-80
2023/05/27 08:01:10;;;;;;;16.33;14.60;;;;;;;;;;5049650;28;20370;-79
2023/05/27 08:03:36;;;;;;;14.60;12.60;;;;;;;;;;5051271;28;20395;-79
2023/05/27 08:06:02;;;;;;;6.88;5.70;;;;;;;;;;5048943;28;20400;-84
2023/05/27 08:08:28;;;;;;;7.47;5.78;;;;;;;;;;5048666;28;20758;-83
2023/05/27 08:10:54;;;;;;;8.05;6.07;;;;;;;;;;5050597;28;20468;-84
2023/05/27 08:13:20;;;;;;;8.45;6.35;;;;;;;;;;5041958;28;20500;-84
2023/05/27 08:15:47;;;;;;;7.47;6.10;;;;;;;;;;5044811;28;21173;-84
2023/05/27 08:18:13;;;;;;;9.20;6.43;;;;;;;;;;5049374;28;20431;-84
2023/05/27 08:20:39;;;;;;;11.50;7.22;;;;;;;;;;5050203;28;20373;-84
2023/05/27 08:23:05;;;;;;;6.95;5.95;;;;;;;;;;5050442;28;20919;-85
2023/05/27 08:25:31;;;;;;;9.35;5.90;;;;;;;;;;5050046;28;20393;-84
2023/05/27 08:28:01;;;;;;;8.82;6.18;;;;;;;;;;5049763;28;20791;-84
2023/05/27 08:30:28;;;;;;;8.25;6.00;;;;;;;;;;5050120;28;20382;-84
2023/05/27 08:32:54;;;;;;;8.60;7.05;;;;;;;;;;5050069;28;20397;-85
2023/05/27 08:35:20;;;;;;;7.87;5.87;;;;;;;;;;5050021;28;20494;-84
2023/05/27 08:37:46;;;;;;;7.85;5.97;;;;;;;;;;5050187;28;20854;-84
2023/05/27 08:40:16;;;;;;;6.43;5.80;;;;;;;;;;5050099;28;20900;-84
2023/05/27 08:42:42;;;;;;;7.88;5.85;;;;;;;;;;5043830;28;20381;-84
2023/05/27 08:45:09;;;;;;;8.88;6.28;;;;;;;;;;5051293;28;20409;-84
2023/05/27 08:47:35;;;;;;;7.60;5.65;;;;;;;;;;5054533;28;20385;-85
2023/05/27 08:50:03;;;;;;;7.93;6.05;;;;;;;;;;5056899;28;20388;-84
2023/05/27 08:52:29;;;;;;;8.35;5.68;;;;;;;;;;5054044;28;20439;-82
2023/05/27 08:54:57;;;;;;;8.68;5.70;;;;;;;;;;5053996;28;20471;-83
2023/05/27 08:57:26;;;;;;;7.18;5.95;;;;;;;;;;5053014;28;20743;-84
2023/05/27 08:59:52;;;;;;;7.20;6.45;;;;;;;;;;5053115;28;20389;-81
2023/05/27 09:02:20;;;;;;;8.57;6.03;;;;;;;;;;5055136;28;20377;-82
2023/05/27 09:04:47;;;;;;;7.25;6.28;;;;;;;;;;5053482;28;20392;-81
2023/05/27 09:07:13;;;;;;;8.18;6.00;;;;;;;;;;5053650;28;20385;-82
2023/05/27 09:09:39;;;;;;;7.78;5.97;;;;;;;;;;5054173;28;20399;-81
2023/05/27 09:12:08;;;;;;;6.97;6.28;;;;;;;;;;5053701;28;20392;-82
2023/05/27 09:14:37;;;;;;;8.00;5.65;;;;;;;;;;5053878;28;20440;-81
2023/05/27 09:17:07;;;;;;;7.10;5.43;;;;;;;;;;5053773;28;20377;-81
2023/05/27 09:19:33;;;;;;;7.95;5.63;;;;;;;;;;5054761;28;20405;-81
2023/05/27 09:21:59;;;;;;;6.97;6.00;;;;;;;;;;5054456;28;20874;-82
2023/05/27 09:24:26;;;;;;;6.43;5.72;;;;;;;;;;5054633;28;20416;-79
2023/05/27 09:26:52;;;;;;;7.07;5.75;;;;;;;;;;5051857;28;20393;-80
2023/05/27 09:29:19;;;;;;;7.32;5.10;;;;;;;;;;5054064;28;20396;-82
2023/05/27 09:31:45;;;;;;;6.28;5.68;;;;;;;;;;5054166;28;20917;-82
2023/05/27 09:34:12;;;;;;;7.45;5.45;;;;;;;;;;5051656;28;20432;-78
2023/05/27 09:36:45;;;;;;;7.00;5.88;;;;;;;;;;5053756;28;20381;-79
2023/05/27 09:39:11;;;;;;;7.03;6.05;;;;;;;;;;5054308;28;20939;-78
2023/05/27 09:41:38;;;;;;;6.05;5.43;;;;;;;;;;5053491;28;20388;-79
2023/05/27 09:44:05;;;;;;;8.68;5.78;;;;;;;;;;5053242;28;20474;-80
2023/05/27 09:46:33;;;;;;;7.30;5.43;;;;;;;;;;5047523;28;20866;-80
2023/05/27 09:49:05;;;;;;;6.32;5.72;;;;;;;;;;5050598;28;20451;-79
2023/05/27 09:51:32;;;;;;;8.63;6.00;;;;;;;;;;5053853;28;20561;-79
2023/05/27 09:53:58;;;;;;;6.00;5.40;;;;;;;;;;5051526;28;20413;-79
2023/05/27 09:56:28;;;;;;;6.32;5.55;;;;;;;;;;5053461;28;20762;-79
2023/05/27 09:58:58;;;;;;;5.90;5.20;;;;;;;;;;5053348;28;20460;-80
2023/05/27 10:01:28;;;;;;;7.20;5.75;;;;;;;;;;5053518;28;20405;-80
2023/05/27 10:03:56;;;;;;;7.68;5.78;;;;;;;;;;5053326;28;20866;-80
2023/05/27 10:06:24;;;;;;;6.15;5.45;;;;;;;;;;5054152;28;20396;-80
2023/05/27 10:08:52;;;;;;;6.85;5.20;;;;;;;;;;5053472;28;20392;-80
2023/05/27 10:11:19;;;;;;;6.78;5.60;;;;;;;;;;5052647;28;20385;-80
2023/05/27 10:13:45;;;;;;;6.30;5.43;;;;;;;;;;5050893;28;20754;-79
2023/05/27 10:16:21;;;;;;;6.28;5.68;;;;;;;;;;5049244;28;20881;-79
2023/05/27 10:18:52;;;;;;;5.90;5.30;;;;;;;;;;5053636;28;20404;-78
2023/05/27 10:21:20;;;;;;;7.72;5.88;;;;;;;;;;5052455;28;20378;-78
2023/05/27 10:23:53;;;;;;;7.28;5.97;;;;;;;;;;5052961;28;20397;-78
2023/05/27 10:26:20;;;;;;;5.93;5.13;;;;;;;;;;5053417;28;20408;-78
2023/05/27 10:28:46;;;;;;;5.90;5.28;;;;;;;;;;5052849;28;20785;-78
2023/05/27 10:31:14;;;;;;;6.03;5.43;;;;;;;;;;5053063;28;20882;-79
2023/05/27 10:33:43;;;;;;;6.57;5.75;;;;;;;;;;5052807;28;20551;-80
2023/05/27 10:36:10;;;;;;;6.60;5.90;;;;;;;;;;5052883;28;20373;-78
2023/05/27 10:38:36;;;;;;;5.88;5.28;;;;;;;;;;5051899;28;20384;-78
2023/05/27 10:41:04;;;;;;;6.60;6.00;;;;;;;;;;5053427;28;20507;-79
2023/05/27 10:43:31;;;;;;;6.00;5.43;;;;;;;;;;5063962;28;20378;-79
2023/05/27 10:46:04;;;;;;;6.30;5.70;;;;;;;;;;5053025;28;20385;-79
2023/05/27 10:48:31;;;;;;;6.13;5.47;;;;;;;;;;5052962;28;20459;-79
2023/05/27 10:50:58;;;;;;;6.90;5.20;;;;;;;;;;5053040;28;20383;-80
2023/05/27 10:53:26;;;;;;;6.23;5.50;;;;;;;;;;5052203;28;20468;-79
2023/05/27 10:55:52;;;;;;;5.97;5.38;;;;;;;;;;5052276;28;20409;-78
2023/05/27 10:58:18;;;;;;;6.82;5.65;;;;;;;;;;5052641;28;20515;-79
2023/05/27 11:00:49;;;;;;;5.57;5.07;;;;;;;;;;5050483;28;20386;-79
2023/05/27 11:03:18;;;;;;;7.75;5.85;;;;;;;;;;5051022;28;20475;-77
2023/05/27 11:05:44;;;;;;;5.82;5.22;;;;;;;;;;5049641;28;20389;-79
2023/05/27 11:08:13;;;;;;;5.65;5.10;;;;;;;;;;5051571;28;20373;-79
2023/05/27 11:10:42;;;;;;;6.95;5.40;;;;;;;;;;5052239;28;20378;-79
2023/05/27 11:13:08;;;;;;;6.22;5.63;;;;;;;;;;5050716;28;20901;-79
2023/05/27 11:15:34;;;;;;;5.88;5.25;;;;;;;;;;5052174;28;20409;-79
2023/05/27 11:18:01;;;;;;;6.28;5.60;;;;;;;;;;5051878;28;20882;-79
2023/05/27 11:20:34;;;;;;;6.53;5.40;;;;;;;;;;5050723;28;20392;-79
2023/05/27 11:23:00;;;;;;;7.70;5.90;;;;;;;;;;5051923;28;20474;-79
2023/05/27 11:25:26;;;;;;;8.00;5.45;;;;;;;;;;5039826;28;20472;-79
2023/05/27 11:27:52;;;;;;;6.00;5.40;;;;;;;;;;5049495;28;20476;-79
2023/05/27 11:30:24;;;;;;;7.18;5.45;;;;;;;;;;5048043;28;20478;-78
2023/05/27 11:32:50;;;;;;;5.57;5.00;;;;;;;;;;5048561;28;20408;-78
2023/05/27 11:35:18;;;;;;;6.55;5.20;;;;;;;;;;5051825;28;20405;-79
2023/05/27 11:37:51;;;;;;;5.90;5.28;;;;;;;;;;5052049;28;20377;-78
2023/05/27 11:40:17;;;;;;;7.20;5.28;;;;;;;;;;5051658;28;20447;-78
2023/05/27 11:42:45;;;;;;;6.65;5.95;;;;;;;;;;5052053;28;20874;-79
2023/05/27 11:45:17;;;;;;;7.65;5.40;;;;;;;;;;5051554;28;20400;-78
2023/05/27 11:47:44;;;;;;;6.85;5.82;;;;;;;;;;5048745;28;20424;-79
2023/05/27 11:50:10;;;;;;;7.60;5.40;;;;;;;;;;5051661;28;20396;-79
2023/05/27 11:52:46;;;;;;;6.25;4.90;;;;;;;;;;5050659;28;20385;-79
2023/05/27 11:55:15;;;;;;;6.15;5.00;;;;;;;;;;5051513;28;20771;-78
2023/05/27 11:57:43;;;;;;;5.82;5.20;;;;;;;;;;5051278;28;20408;-79
2023/05/27 12:00:09;;;;;;;6.05;5.30;;;;;;;;;;5051658;28;20727;-77
2023/05/27 12:02:36;;;;;;;6.78;5.00;;;;;;;;;;5051769;28;20498;-78
2023/05/27 12:05:02;;;;;;;20.50;6.78;;;;;;;;;;5051556;28;20712;-77
2023/05/27 12:07:28;;;;;;;7.65;4.88;;;;;;;;;;5051475;28;20443;-78
2023/05/27 12:09:54;;;;;;;5.55;5.05;;;;;;;;;;5051608;28;20854;-78
2023/05/27 12:12:20;;;;;;;6.25;5.18;;;;;;;;;;5050830;28;20373;-78
2023/05/27 12:14:46;;;;;;;5.82;5.03;;;;;;;;;;5050226;28;20500;-77
2023/05/27 12:17:12;;;;;;;6.85;5.57;;;;;;;;;;5050830;28;20416;-78
2023/05/27 12:19:38;;;;;;;5.35;4.85;;;;;;;;;;5051270;28;20405;-78
2023/05/27 12:22:07;;;;;;;8.80;6.13;;;;;;;;;;5051412;28;20412;-78
2023/05/27 12:24:34;;;;;;;6.00;5.10;;;;;;;;;;5051094;28;20465;-78
2023/05/27 12:27:01;;;;;;;11.27;5.45;;;;;;;;;;5051420;28;20388;-78
2023/05/27 12:29:29;;;;;;;6.90;5.30;;;;;;;;;;5051145;28;20892;-78
2023/05/27 12:31:55;;;;;;;5.10;4.70;;;;;;;;;;5051297;28;20393;-78
2023/05/27 12:34:21;;;;;;;5.55;5.00;;;;;;;;;;5050393;28;20413;-80
2023/05/27 12:36:47;;;;;;;5.82;5.22;;;;;;;;;;5050281;28;20377;-80
2023/05/27 12:39:13;;;;;;;8.40;5.53;;;;;;;;;;5051204;28;20897;-80
2023/05/27 12:41:39;;;;;;;5.93;5.07;;;;;;;;;;5051041;28;20385;-80
2023/05/27 12:44:05;;;;;;;5.72;5.15;;;;;;;;;;5054104;28;20712;-83
2023/05/27 12:46:37;;;;;;;5.57;4.82;;;;;;;;;;5050204;28;20381;-85
2023/05/27 12:49:03;;;;;;;5.45;4.78;;;;;;;;;;5048030;28;20491;-84
2023/05/27 12:51:30;;;;;;;6.65;5.50;;;;;;;;;;5050227;28;20833;-85
2023/05/27 12:53:56;;;;;;;5.72;4.93;;;;;;;;;;5049554;28;20914;-85
2023/05/27 12:56:22;;;;;;;5.70;5.10;;;;;;;;;;5050092;28;20398;-86
2023/05/27 12:58:48;;;;;;;5.20;4.70;;;;;;;;;;5051086;28;20878;-85
2023/05/27 13:01:14;;;;;;;5.88;5.28;;;;;;;;;;5050946;28;20862;-85
2023/05/27 13:03:41;;;;;;;5.80;5.20;;;;;;;;;;5050994;28;20388;-85
2023/05/27 13:06:07;;;;;;;7.03;5.20;;;;;;;;;;5050936;28;20395;-85
2023/05/27 13:08:33;;;;;;;6.33;5.20;;;;;;;;;;5051316;28;20734;-86
2023/05/27 13:10:59;;;;;;;6.80;5.10;;;;;;;;;;5050865;28;20400;-85
2023/05/27 13:13:25;;;;;;;5.57;4.78;;;;;;;;;;5051003;28;20381;-85
2023/05/27 13:15:51;;;;;;;5.65;4.95;;;;;;;;;;5050593;28;20381;-85
2023/05/27 13:18:17;;;;;;;5.95;5.00;;;;;;;;;;5053252;28;20382;-85
2023/05/27 13:20:43;;;;;;;6.50;5.47;;;;;;;;;;5050748;28;20871;-86
2023/05/27 13:23:09;;;;;;;5.20;4.70;;;;;;;;;;5050886;28;20850;-85
2023/05/27 13:25:35;;;;;;;5.45;4.95;;;;;;;;;;5049381;28;20520;-85
2023/05/27 13:28:04;;;;;;;5.95;4.75;;;;;;;;;;5050603;28;20472;-85
2023/05/27 13:30:30;;;;;;;6.85;4.88;;;;;;;;;;5049902;28;20400;-85
2023/05/27 13:32:56;;;;;;;6.45;5.40;;;;;;;;;;5054281;28;20397;-86
2023/05/27 13:35:22;;;;;;;6.20;5.28;;;;;;;;;;5054480;28;20459;-86
2023/05/27 13:37:48;;;;;;;5.25;4.75;;;;;;;;;;5053408;28;20382;-86
2023/05/27 13:40:14;;;;;;;6.13;4.88;;;;;;;;;;5054378;28;20407;-85
2023/05/27 13:42:41;;;;;;;5.45;4.90;;;;;;;;;;5054836;28;20373;-86
2023/05/27 13:45:07;;;;;;;6.40;4.77;;;;;;;;;;5053960;28;20447;-87
2023/05/27 13:47:33;;;;;;;6.10;4.82;;;;;;;;;;5052995;28;20526;-85
2023/05/27 13:49:59;;;;;;;5.22;4.63;;;;;;;;;;5053030;28;20382;-87
2023/05/27 13:52:25;;;;;;;5.78;5.00;;;;;;;;;;5054096;28;20917;-84
2023/05/27 13:54:52;;;;;;;5.82;4.70;;;;;;;;;;5053801;28;20413;-84
2023/05/27 13:57:18;;;;;;;5.37;4.70;;;;;;;;;;5053763;28;20427;-83
2023/05/27 13:59:44;;;;;;;7.13;4.77;;;;;;;;;;5053844;28;20973;-83
2023/05/27 14:02:10;;;;;;;6.05;4.80;;;;;;;;;;5051485;28;20389;-83
2023/05/27 14:04:36;;;;;;;5.20;4.70;;;;;;;;;;5053645;28;20467;-83
2023/05/27 14:07:02;;;;;;;6.97;5.00;;;;;;;;;;5053764;28;20373;-84
2023/05/27 14:09:28;;;;;;;6.73;5.03;;;;;;;;;;5053802;28;20408;-83
2023/05/27 14:11:54;;;;;;;5.15;4.65;;;;;;;;;;5053517;28;20850;-82
2023/05/27 14:14:20;;;;;;;8.88;5.22;;;;;;;;;;5053583;28;20508;-84
2023/05/27 14:16:47;;;;;;;6.18;4.80;;;;;;;;;;5053212;28;20465;-84
2023/05/27 14:19:13;;;;;;;5.43;4.90;;;;;;;;;;5052195;28;20386;-84
2023/05/27 14:21:40;;;;;;;6.40;4.70;;;;;;;;;;5053573;28;20866;-83
2023/05/27 14:24:06;;;;;;;6.55;4.75;;;;;;;;;;5053482;28;20393;-83
2023/05/27 14:26:32;;;;;;;5.68;5.00;;;;;;;;;;5053574;28;20404;-83
2023/05/27 14:28:59;;;;;;;5.22;4.75;;;;;;;;;;5053430;28;20382;-82
2023/05/27 14:31:25;;;;;;;5.27;4.70;;;;;;;;;;5053324;28;20435;-83
2023/05/27 14:33:51;;;;;;;6.23;4.80;;;;;;;;;;5053396;28;20762;-84
2023/05/27 14:36:17;;;;;;;6.20;4.93;;;;;;;;;;5053286;28;20427;-83
2023/05/27 14:38:43;;;;;;;5.40;4.80;;;;;;;;;;5053528;28;20374;-83
2023/05/27 14:41:09;;;;;;;5.65;4.72;;;;;;;;;;5053250;28;20453;-83
2023/05/27 14:43:35;;;;;;;6.50;4.82;;;;;;;;;;5052251;28;20460;-83